Vihari Weather



Vihari's Current Weather

Temprature 19.09o clear sky

clear sky

Rain: 0 %

Min Temprature19.09o
Max Temprature19.09o
Humidity26
Wind Speed2.32 m/h
Sun Rise06:21:28
Sun Set17:27:04
Current Time: 28-Oct-2020 05:20:08
Lat/Lon: 30.03, 72.35




Vihari's Geo Location



Vihari's Weather Forecast

Time Overall Temp Min Temp Max Temp Humidity Wind Speed Rain
28-Oct-2020 (Wed)
08:00:00 clear sky 21.350 21.350 23.840 22 2.82 m/h 0 %
11:00:00 clear sky 30.160 30.160 33.240 13 4.09 m/h 0 %
14:00:00 clear sky 34.180 34.180 35.220 10 3.57 m/h 0 %
17:00:00 clear sky 30.370 30.370 30.460 13 2.3 m/h 0 %
20:00:00 clear sky 23.240 23.240 23.240 20 1.43 m/h 0 %
23:00:00 clear sky 21.760 21.760 21.760 21 1.3 m/h 0 %
29-Oct-2020 (Thu)
02:00:00 clear sky 20.160 20.160 20.160 23 1.33 m/h 0 %
05:00:00 clear sky 19.440 19.440 19.440 24 2.12 m/h 0 %
08:00:00 clear sky 23.270 23.270 23.270 20 1.65 m/h 0 %
11:00:00 clear sky 32.310 32.310 32.310 12 3.2 m/h 0 %
14:00:00 clear sky 34.920 34.920 34.920 10 2.8 m/h 0 %
17:00:00 clear sky 30.310 30.310 30.310 13 1.41 m/h 0 %
20:00:00 clear sky 23.060 23.060 23.060 20 1.88 m/h 0 %
23:00:00 clear sky 21.660 21.660 21.660 22 2.15 m/h 0 %
30-Oct-2020 (Fri)
02:00:00 clear sky 19.550 19.550 19.550 25 2.09 m/h 0 %
05:00:00 clear sky 18.400 18.400 18.400 26 1.52 m/h 0 %
08:00:00 clear sky 22.570 22.570 22.570 20 2.16 m/h 0 %
11:00:00 clear sky 32.100 32.100 32.100 11 3.18 m/h 0 %
14:00:00 clear sky 34.530 34.530 34.530 10 3.4 m/h 0 %
17:00:00 clear sky 29.800 29.800 29.800 13 2.86 m/h 0 %
20:00:00 clear sky 23.510 23.510 23.510 18 3.12 m/h 0 %
23:00:00 clear sky 21.300 21.300 21.300 21 2.63 m/h 0 %
31-Oct-2020 (Sat)
02:00:00 clear sky 18.300 18.300 18.300 26 1.05 m/h 0 %
05:00:00 clear sky 17.280 17.280 17.280 27 1.59 m/h 0 %
08:00:00 clear sky 22.550 22.550 22.550 19 1.63 m/h 0 %
11:00:00 clear sky 32.870 32.870 32.870 10 1.4 m/h 0 %
14:00:00 clear sky 34.450 34.450 34.450 9 2.84 m/h 0 %
17:00:00 clear sky 29.390 29.390 29.390 12 1.93 m/h 0 %
20:00:00 clear sky 22.410 22.410 22.410 19 2.03 m/h 0 %
23:00:00 clear sky 19.960 19.960 19.960 22 0.98 m/h 0 %
01-Nov-2020 (Sun)
02:00:00 clear sky 18.890 18.890 18.890 24 1.14 m/h 0 %
05:00:00 clear sky 18.420 18.420 18.420 25 2.37 m/h 0 %
08:00:00 clear sky 22.430 22.430 22.430 19 1.58 m/h 0 %
11:00:00 clear sky 32.100 32.100 32.100 11 2.23 m/h 0 %
14:00:00 clear sky 34.750 34.750 34.750 8 3.33 m/h 0 %
17:00:00 clear sky 29.370 29.370 29.370 11 2.84 m/h 0 %
20:00:00 clear sky 23.150 23.150 23.150 18 3.26 m/h 0 %
23:00:00 clear sky 18.760 18.760 18.760 24 1.02 m/h 0 %
02-Nov-2020 (Mon)
02:00:00 clear sky 17.860 17.860 17.860 26 0.67 m/h 0 %
05:00:00 clear sky 17.330 17.330 17.330 26 1.1 m/h 0 %

Famous Cities (60)